createdAt,value
2023-04-03T00:00:43.543Z,99005.48
2023-04-03T00:01:45.815Z,98996.03
2023-04-03T00:02:48.082Z,98994.70
2023-04-03T00:03:52.062Z,98991.86
2023-04-03T00:04:55.953Z,98986.94
2023-04-03T00:05:58.969Z,98986.89
2023-04-03T00:07:02.716Z,98985.68
2023-04-03T00:08:06.940Z,99000.38
2023-04-03T00:09:10.702Z,98987.21
2023-04-03T00:10:15.955Z,98991.28
2023-04-03T00:11:19.601Z,98989.52
2023-04-03T00:12:22.602Z,98982.46
2023-04-03T00:13:25.605Z,98994.92
2023-04-03T00:14:28.042Z,98989.91
2023-04-03T00:15:30.193Z,98991.59
2023-04-03T00:16:32.603Z,98987.39
2023-04-03T00:17:35.581Z,98984.84
2023-04-03T00:18:40.820Z,98986.61
2023-04-03T00:19:42.996Z,98987.16
2023-04-03T00:20:45.585Z,98995.42
2023-04-03T00:21:47.931Z,98995.36
2023-04-03T00:22:50.836Z,98992.11
2023-04-03T00:23:53.027Z,98992.11
2023-04-03T00:24:56.976Z,98993.52
2023-04-03T00:25:59.558Z,98992.81
2023-04-03T00:27:01.943Z,98995.20
2023-04-03T00:28:05.508Z,98990.23
2023-04-03T00:29:07.933Z,98985.70
2023-04-03T00:30:14.060Z,98985.70
2023-04-03T00:31:17.021Z,98989.48
2023-04-03T00:32:19.637Z,98987.09
2023-04-03T00:33:22.862Z,98988.90
2023-04-03T00:34:25.622Z,98995.63
2023-04-03T00:35:28.724Z,98991.98
2023-04-03T00:36:31.377Z,98990.30
2023-04-03T00:37:34.188Z,98990.45
2023-04-03T00:38:36.651Z,98989.52
2023-04-03T00:39:39.791Z,98989.00
2023-04-03T00:40:45.640Z,98993.69
2023-04-03T00:41:48.322Z,98987.16
2023-04-03T00:42:55.205Z,98993.86
2023-04-03T00:43:59.289Z,98990.94
2023-04-03T00:45:05.231Z,98984.98
2023-04-03T00:46:08.051Z,98979.67
2023-04-03T00:47:14.065Z,98986.38
2023-04-03T00:48:23.500Z,98986.09
2023-04-03T00:49:27.057Z,98982.19
2023-04-03T00:50:31.385Z,98980.50
2023-04-03T00:51:34.817Z,98983.75
2023-04-03T00:52:38.394Z,98982.31
2023-04-03T00:53:47.924Z,98989.58
2023-04-03T00:54:54.103Z,98980.41
2023-04-03T00:55:57.832Z,98984.40
2023-04-03T00:57:03.256Z,98977.97
2023-04-03T00:58:07.738Z,98980.50
2023-04-03T00:59:16.773Z,98976.88
2023-04-03T01:00:21.332Z,98986.83
2023-04-03T01:01:27.288Z,98981.93
2023-04-03T01:02:29.830Z,98981.85
2023-04-03T01:03:33.120Z,98981.08
2023-04-03T01:04:42.844Z,98982.47
2023-04-03T01:05:45.790Z,98975.33
2023-04-03T01:06:48.198Z,98984.56
2023-04-03T01:07:52.268Z,98976.18
2023-04-03T01:08:56.387Z,98978.92
2023-04-03T01:10:01.947Z,98977.73
2023-04-03T01:11:04.761Z,98977.45
2023-04-03T01:12:22.383Z,98977.73
2023-04-03T01:13:28.688Z,98976.75
2023-04-03T01:14:34.129Z,98973.93
2023-04-03T01:15:36.480Z,98975.35
2023-04-03T01:16:39.968Z,98979.13
2023-04-03T01:17:54.002Z,98979.13
2023-04-03T01:18:56.353Z,98975.27
2023-04-03T01:20:14.444Z,98974.93
2023-04-03T01:21:37.111Z,98973.09
2023-04-03T01:22:49.586Z,98975.95
2023-04-03T01:23:57.233Z,98977.92
2023-04-03T01:24:59.929Z,98971.69
2023-04-03T01:26:03.766Z,98979.25
2023-04-03T01:27:08.378Z,98973.37
2023-04-03T01:28:14.051Z,98970.50
2023-04-03T01:29:16.637Z,98973.09
2023-04-03T01:30:22.802Z,98971.41
2023-04-03T01:31:34.617Z,98972.89
2023-04-03T01:32:37.714Z,98971.28
2023-04-03T01:33:40.238Z,98977.84
2023-04-03T01:34:43.651Z,98969.05
2023-04-03T01:35:46.889Z,98971.69
2023-04-03T01:36:51.329Z,98965.37
2023-04-03T01:37:53.619Z,98976.00
2023-04-03T01:38:58.612Z,98972.91
2023-04-03T01:40:01.054Z,98979.02
2023-04-03T01:41:03.520Z,98977.38
2023-04-03T01:42:06.843Z,98975.84
2023-04-03T01:43:11.034Z,98978.23
2023-04-03T01:44:14.243Z,98980.55
2023-04-03T01:45:16.768Z,98981.59
2023-04-03T01:46:20.686Z,98981.52
2023-04-03T01:47:23.420Z,98986.98
2023-04-03T01:48:26.195Z,98974.63
2023-04-03T01:49:30.401Z,98977.52
2023-04-03T01:50:33.342Z,98979.25
2023-04-03T01:51:36.224Z,98976.86
2023-04-03T01:52:38.910Z,98978.00
2023-04-03T01:53:41.605Z,98974.27
2023-04-03T01:54:44.233Z,98975.68
2023-04-03T01:55:46.800Z,98971.56
2023-04-03T01:56:49.361Z,98973.09
2023-04-03T01:57:51.767Z,98981.76
2023-04-03T01:58:54.573Z,98979.95
2023-04-03T01:59:57.140Z,98978.27
2023-04-03T02:01:00.000Z,98977.64
2023-04-03T02:02:02.480Z,98970.78
2023-04-03T02:03:05.517Z,98978.70
2023-04-03T02:04:08.230Z,98979.45
2023-04-03T02:05:10.968Z,98981.76
2023-04-03T02:06:13.387Z,98978.42
2023-04-03T02:07:17.309Z,98969.75
2023-04-03T02:08:20.494Z,98975.75
2023-04-03T02:09:24.492Z,98979.67
2023-04-03T02:10:31.358Z,98980.09
2023-04-03T02:11:33.982Z,98976.58
2023-04-03T02:12:36.426Z,98979.87
2023-04-03T02:13:38.751Z,98979.83
2023-04-03T02:14:41.847Z,98975.20
2023-04-03T02:15:48.199Z,98978.55
2023-04-03T02:16:53.071Z,98980.11
2023-04-03T02:17:57.499Z,98976.46
2023-04-03T02:19:00.178Z,98976.73
2023-04-03T02:20:04.856Z,98977.86
2023-04-03T02:21:08.887Z,98980.58
2023-04-03T02:22:11.558Z,98981.52
2023-04-03T02:23:14.325Z,98983.80
2023-04-03T02:24:16.539Z,98981.76
2023-04-03T02:25:18.875Z,98985.05
2023-04-03T02:26:21.544Z,98975.88
2023-04-03T02:27:24.073Z,98980.63
2023-04-03T02:28:26.678Z,98987.05
2023-04-03T02:29:29.138Z,98988.74
2023-04-03T02:30:31.715Z,98976.62
2023-04-03T02:31:34.206Z,98985.68
2023-04-03T02:32:37.190Z,98981.34
2023-04-03T02:33:39.661Z,98975.20
2023-04-03T02:34:43.835Z,98981.02
2023-04-03T02:35:50.595Z,98979.95
2023-04-03T02:36:53.194Z,98977.98
2023-04-03T02:37:57.282Z,98977.52
2023-04-03T02:39:00.100Z,98978.55
2023-04-03T02:40:03.215Z,98980.59
2023-04-03T02:41:08.706Z,98979.41
2023-04-03T02:42:11.222Z,98980.23
2023-04-03T02:43:13.989Z,98974.35
2023-04-03T02:44:16.583Z,98985.95
2023-04-03T02:45:20.128Z,98985.68
2023-04-03T02:46:23.153Z,98974.55
2023-04-03T02:47:25.517Z,98980.78
2023-04-03T02:48:28.690Z,98982.59
2023-04-03T02:49:31.459Z,98987.84
2023-04-03T02:50:34.728Z,98978.47
2023-04-03T02:51:37.266Z,98987.77
2023-04-03T02:52:39.845Z,98977.29
2023-04-03T02:53:42.621Z,98984.98
2023-04-03T02:54:46.807Z,98982.52
2023-04-03T02:55:50.951Z,98984.55
2023-04-03T02:56:54.717Z,98982.74
2023-04-03T02:57:58.275Z,98977.34
2023-04-03T02:59:01.050Z,98978.27
2023-04-03T03:00:05.046Z,98990.42
2023-04-03T03:01:08.018Z,98987.48
2023-04-03T03:02:10.951Z,98984.70
2023-04-03T03:03:15.401Z,98978.12
2023-04-03T03:04:17.931Z,98981.21
2023-04-03T03:05:22.339Z,98980.38
2023-04-03T03:06:25.934Z,98984.78
2023-04-03T03:07:28.544Z,98982.52
2023-04-03T03:08:31.026Z,98981.17
2023-04-03T03:09:33.538Z,98994.74
2023-04-03T03:10:36.222Z,98978.83
2023-04-03T03:11:38.895Z,98991.13
2023-04-03T03:12:41.212Z,98989.72
2023-04-03T03:13:43.552Z,98984.39
2023-04-03T03:14:45.783Z,98987.77
2023-04-03T03:15:48.086Z,98983.38
2023-04-03T03:16:50.770Z,98989.33
2023-04-03T03:17:53.229Z,98982.39
2023-04-03T03:18:57.819Z,98982.39
2023-04-03T03:20:01.022Z,98975.41
2023-04-03T03:21:05.446Z,98983.49
2023-04-03T03:22:07.952Z,98991.13
2023-04-03T03:23:10.303Z,98981.48
2023-04-03T03:24:12.711Z,98985.56
2023-04-03T03:25:14.976Z,98982.03
2023-04-03T03:26:17.626Z,98983.59
2023-04-03T03:27:20.336Z,98983.88
2023-04-03T03:28:22.752Z,98982.27
2023-04-03T03:29:25.968Z,98985.95
2023-04-03T03:30:29.012Z,98987.05
2023-04-03T03:31:33.320Z,98994.27
2023-04-03T03:32:35.755Z,98993.21
2023-04-03T03:33:38.376Z,98987.25
2023-04-03T03:34:40.882Z,98986.35
2023-04-03T03:35:43.787Z,98986.50
2023-04-03T03:36:46.264Z,98991.25
2023-04-03T03:37:48.708Z,98985.61
2023-04-03T03:38:51.640Z,98990.86
2023-04-03T03:39:54.412Z,98983.88
2023-04-03T03:40:57.095Z,98983.88
2023-04-03T03:42:00.208Z,98981.13
2023-04-03T03:43:03.080Z,98988.50
2023-04-03T03:44:05.892Z,98988.34
2023-04-03T03:45:10.018Z,98983.74
2023-04-03T03:46:13.406Z,98989.00
2023-04-03T03:47:16.173Z,98979.05
2023-04-03T03:48:19.003Z,98983.88
2023-04-03T03:49:21.597Z,98986.73
2023-04-03T03:50:23.985Z,98993.21
2023-04-03T03:51:26.610Z,98994.89
2023-04-03T03:52:30.953Z,98994.50
2023-04-03T03:53:33.436Z,98989.17
2023-04-03T03:54:38.547Z,98994.23
2023-04-03T03:55:41.737Z,98987.09
2023-04-03T03:56:46.514Z,98989.52
2023-04-03T03:57:49.085Z,98979.61
2023-04-03T03:58:51.600Z,98999.92
2023-04-03T03:59:55.074Z,98999.92
2023-04-03T04:01:00.256Z,98995.02
2023-04-03T04:02:03.289Z,99001.60
2023-04-03T04:03:05.723Z,98995.20
2023-04-03T04:04:08.378Z,98986.46
2023-04-03T04:05:10.772Z,98978.55
2023-04-03T04:06:13.816Z,98996.16
2023-04-03T04:07:16.612Z,98994.89
2023-04-03T04:08:20.312Z,98994.89
2023-04-03T04:09:23.435Z,99001.48
2023-04-03T04:10:26.139Z,98981.56
2023-04-03T04:11:28.723Z,98987.48
2023-04-03T04:12:31.388Z,98986.03
2023-04-03T04:13:33.954Z,98992.31
2023-04-03T04:14:38.602Z,98993.21
2023-04-03T04:15:41.632Z,98991.67
2023-04-03T04:16:44.239Z,98993.36
2023-04-03T04:17:48.995Z,98995.02
2023-04-03T04:18:52.092Z,98997.99
2023-04-03T04:19:57.832Z,98983.88
2023-04-03T04:21:00.624Z,98992.73
2023-04-03T04:22:04.014Z,98991.33
2023-04-03T04:23:07.315Z,98998.27
2023-04-03T04:24:11.171Z,98995.72
2023-04-03T04:25:14.412Z,98999.24
2023-04-03T04:26:17.223Z,98996.85
2023-04-03T04:27:19.929Z,98993.48
2023-04-03T04:28:23.180Z,99001.24
2023-04-03T04:29:26.435Z,98998.66
2023-04-03T04:30:29.700Z,98998.53
2023-04-03T04:31:32.765Z,99005.09
2023-04-03T04:32:36.642Z,99000.50
2023-04-03T04:33:40.056Z,99006.50
2023-04-03T04:34:43.196Z,99005.55
2023-04-03T04:35:48.280Z,99005.52
2023-04-03T04:36:51.096Z,99001.75
2023-04-03T04:37:53.955Z,99005.95
2023-04-03T04:38:58.901Z,99001.75
2023-04-03T04:40:02.822Z,99004.97
2023-04-03T04:41:06.119Z,99004.97
2023-04-03T04:42:11.486Z,99003.92
2023-04-03T04:43:14.990Z,99014.78
2023-04-03T04:44:17.802Z,99012.70
2023-04-03T04:45:20.240Z,99000.25
2023-04-03T04:46:24.407Z,99005.55
2023-04-03T04:47:30.120Z,99003.88
2023-04-03T04:48:33.202Z,99005.84
2023-04-03T04:49:36.447Z,99002.34
2023-04-03T04:50:39.744Z,99002.03
2023-04-03T04:51:51.524Z,99009.05
2023-04-03T04:52:46.846Z,99009.80
2023-04-03T04:53:49.492Z,99004.07
2023-04-03T04:54:52.901Z,99005.95
2023-04-03T04:55:55.439Z,99008.61
2023-04-03T04:56:59.409Z,99006.07
2023-04-03T04:58:02.722Z,99003.95
2023-04-03T04:59:06.731Z,99004.02
2023-04-03T05:00:11.811Z,98999.56
2023-04-03T05:01:14.436Z,99008.30
2023-04-03T05:02:20.279Z,99004.73
2023-04-03T05:03:22.835Z,99002.77
2023-04-03T05:04:25.809Z,99009.00
2023-04-03T05:05:30.143Z,99014.17
2023-04-03T05:06:33.321Z,99011.52
2023-04-03T05:07:36.145Z,99005.80
2023-04-03T05:08:38.808Z,99010.03
2023-04-03T05:09:42.751Z,99016.15
2023-04-03T05:10:46.738Z,99018.69
2023-04-03T05:11:49.856Z,99008.14
2023-04-03T05:12:52.656Z,99007.44
2023-04-03T05:13:55.369Z,99006.38
2023-04-03T05:14:57.887Z,99005.98
2023-04-03T05:16:01.663Z,99009.75
2023-04-03T05:17:05.824Z,99008.77
2023-04-03T05:18:09.939Z,99001.52
2023-04-03T05:19:12.403Z,99010.38
2023-04-03T05:20:15.437Z,99008.14
2023-04-03T05:21:18.835Z,99013.37
2023-04-03T05:22:21.873Z,99013.37
2023-04-03T05:23:25.230Z,99008.06
2023-04-03T05:24:30.212Z,99014.85
2023-04-03T05:25:32.791Z,99015.56
2023-04-03T05:26:35.877Z,99020.86
2023-04-03T05:27:38.471Z,99020.58
2023-04-03T05:28:40.904Z,99021.05
2023-04-03T05:29:46.333Z,99016.34
2023-04-03T05:30:55.802Z,99016.34
2023-04-03T05:31:58.466Z,99022.92
2023-04-03T05:33:01.966Z,99021.03
2023-04-03T05:34:06.594Z,99026.41
2023-04-03T05:35:11.031Z,99023.55
2023-04-03T05:36:14.751Z,99022.07
2023-04-03T05:37:19.446Z,99025.01
2023-04-03T05:38:22.235Z,99022.55
2023-04-03T05:39:26.416Z,99023.95
2023-04-03T05:40:29.826Z,99027.83
2023-04-03T05:41:32.709Z,99022.77
2023-04-03T05:42:36.313Z,99013.59
2023-04-03T05:43:40.423Z,99033.52
2023-04-03T05:44:44.716Z,99031.80
2023-04-03T05:45:49.216Z,99025.64
2023-04-03T05:46:51.944Z,99023.63
2023-04-03T05:47:55.849Z,99022.49
2023-04-03T05:49:00.117Z,99029.23
2023-04-03T05:50:05.420Z,99027.39
2023-04-03T05:51:18.438Z,99023.90
2023-04-03T05:52:25.028Z,99030.48
2023-04-03T05:53:34.208Z,99023.49
2023-04-03T05:54:37.713Z,99025.52
2023-04-03T05:55:45.579Z,99028.39
2023-04-03T05:56:48.131Z,99026.42
2023-04-03T05:57:50.749Z,99026.42
2023-04-03T05:58:53.494Z,99025.72
2023-04-03T05:59:57.199Z,99024.61
2023-04-03T06:01:01.469Z,99027.20
2023-04-03T06:02:05.109Z,99029.91
2023-04-03T06:03:07.920Z,99031.19
2023-04-03T06:04:11.371Z,99030.90
2023-04-03T06:05:15.373Z,99036.20
2023-04-03T06:06:18.128Z,99030.28
2023-04-03T06:07:23.507Z,99033.49
2023-04-03T06:08:26.068Z,99040.36
2023-04-03T06:09:29.547Z,99031.80
2023-04-03T06:10:32.695Z,99042.09
2023-04-03T06:11:35.799Z,99042.09
2023-04-03T06:12:38.345Z,99038.34
2023-04-03T06:13:40.673Z,99046.31
2023-04-03T06:14:43.155Z,99046.31
2023-04-03T06:15:45.796Z,99055.33
2023-04-03T06:16:49.406Z,99041.27
2023-04-03T06:17:52.264Z,99049.81
2023-04-03T06:18:55.429Z,99046.16
2023-04-03T06:19:58.829Z,99047.68
2023-04-03T06:21:03.151Z,99047.47
2023-04-03T06:22:06.107Z,99053.22
2023-04-03T06:23:09.224Z,99056.64
2023-04-03T06:24:15.870Z,99051.53
2023-04-03T06:25:19.810Z,99055.94
2023-04-03T06:26:26.216Z,99055.16
2023-04-03T06:27:28.569Z,99053.27
2023-04-03T06:28:30.866Z,99054.13
2023-04-03T06:29:33.644Z,99059.31
2023-04-03T06:30:37.432Z,99051.24
2023-04-03T06:31:40.132Z,99054.13
2023-04-03T06:32:43.264Z,99046.56
2023-04-03T06:33:45.744Z,99054.70
2023-04-03T06:34:47.886Z,99052.53
2023-04-03T06:35:52.493Z,99053.02
2023-04-03T06:36:54.899Z,99058.82
2023-04-03T06:37:57.847Z,99057.63
2023-04-03T06:39:00.606Z,99055.52
2023-04-03T06:40:03.598Z,99061.40
2023-04-03T06:41:06.359Z,99063.37
2023-04-03T06:42:08.732Z,99062.09
2023-04-03T06:43:13.055Z,99061.23
2023-04-03T06:44:16.676Z,99066.16
2023-04-03T06:45:20.116Z,99066.16
2023-04-03T06:46:23.745Z,99065.72
2023-04-03T06:47:26.254Z,99064.07
2023-04-03T06:48:28.577Z,99062.39
2023-04-03T06:49:31.982Z,99063.78
2023-04-03T06:50:34.626Z,99063.65
2023-04-03T06:51:37.451Z,99069.23
2023-04-03T06:52:41.073Z,99073.29
2023-04-03T06:53:43.520Z,99068.88
2023-04-03T06:54:46.117Z,99069.48
2023-04-03T06:55:48.656Z,99072.16
2023-04-03T06:56:51.730Z,99074.12
2023-04-03T06:57:54.345Z,99075.27
2023-04-03T06:58:59.441Z,99073.72
2023-04-03T07:00:04.776Z,99077.22
2023-04-03T07:01:07.358Z,99064.05
2023-04-03T07:02:12.322Z,99073.72
2023-04-03T07:03:14.826Z,99079.25
2023-04-03T07:04:20.391Z,99075.70
2023-04-03T07:05:23.318Z,99075.27
2023-04-03T07:06:28.719Z,99087.03
2023-04-03T07:07:31.551Z,99072.03
2023-04-03T07:08:36.293Z,99071.61
2023-04-03T07:09:38.618Z,99076.49
2023-04-03T07:10:41.290Z,99086.44
2023-04-03T07:11:44.418Z,99074.67
2023-04-03T07:12:46.855Z,99070.18
2023-04-03T07:13:50.521Z,99075.37
2023-04-03T07:14:53.287Z,99069.63
2023-04-03T07:15:55.794Z,99074.81
2023-04-03T07:16:58.206Z,99071.61
2023-04-03T07:18:00.573Z,99077.35
2023-04-03T07:19:03.621Z,99082.16
2023-04-03T07:20:07.795Z,99077.58
2023-04-03T07:21:11.385Z,99075.06
2023-04-03T07:22:13.826Z,99078.95
2023-04-03T07:23:16.690Z,99074.84
2023-04-03T07:24:19.838Z,99078.27
2023-04-03T07:25:22.151Z,99083.84
2023-04-03T07:26:24.396Z,99075.45
2023-04-03T07:27:28.398Z,99082.11
2023-04-03T07:28:31.782Z,99083.53
2023-04-03T07:29:33.982Z,99074.70
2023-04-03T07:30:48.759Z,99084.61
2023-04-03T07:31:50.953Z,99084.17
2023-04-03T07:32:54.331Z,99081.71
2023-04-03T07:33:56.928Z,99086.59
2023-04-03T07:34:59.925Z,99087.59
2023-04-03T07:36:03.776Z,99079.27
2023-04-03T07:37:06.988Z,99081.55
2023-04-03T07:38:09.973Z,99084.01
2023-04-03T07:39:12.332Z,99090.62
2023-04-03T07:40:15.999Z,99081.47
2023-04-03T07:41:21.610Z,99081.47
2023-04-03T07:42:23.892Z,99084.89
2023-04-03T07:43:26.429Z,99088.40
2023-04-03T07:44:28.934Z,99090.67
2023-04-03T07:45:32.759Z,99080.47
2023-04-03T07:46:35.190Z,99085.66
2023-04-03T07:47:37.782Z,99088.70
2023-04-03T07:48:40.158Z,99086.30
2023-04-03T07:49:42.561Z,99088.33
2023-04-03T07:50:45.656Z,99092.48
2023-04-03T07:51:49.045Z,99090.98
2023-04-03T07:52:53.138Z,99084.75
2023-04-03T07:53:55.823Z,99090.03
2023-04-03T07:54:58.144Z,99093.39
2023-04-03T07:56:02.971Z,99093.62
2023-04-03T07:57:06.855Z,99092.53
2023-04-03T07:58:15.377Z,99091.48
2023-04-03T07:59:17.763Z,99094.81
2023-04-03T08:00:20.585Z,99093.59
2023-04-03T08:01:23.999Z,99094.64
2023-04-03T08:02:27.293Z,99093.08
2023-04-03T08:03:29.967Z,99095.13
2023-04-03T08:04:32.481Z,99094.22
2023-04-03T08:05:40.593Z,99094.05
2023-04-03T08:06:46.793Z,99100.47
2023-04-03T08:07:48.115Z,99098.33
2023-04-03T08:08:50.522Z,99096.32
2023-04-03T08:09:52.875Z,99097.09
2023-04-03T08:10:55.431Z,99098.05
2023-04-03T08:11:59.168Z,99096.20
2023-04-03T08:13:03.481Z,99102.63
2023-04-03T08:14:05.883Z,99101.86
2023-04-03T08:15:09.362Z,99097.73
2023-04-03T08:16:15.408Z,99091.77
2023-04-03T08:17:17.617Z,99092.45
2023-04-03T08:18:21.822Z,99108.56
2023-04-03T08:19:26.806Z,99104.29
2023-04-03T08:20:29.665Z,99105.83
2023-04-03T08:21:34.011Z,99107.02
2023-04-03T08:22:37.398Z,99096.81
2023-04-03T08:23:45.192Z,99103.11
2023-04-03T08:24:58.544Z,99103.59
2023-04-03T08:25:51.479Z,99104.27
2023-04-03T08:26:54.996Z,99105.30
2023-04-03T08:27:57.084Z,99100.44
2023-04-03T08:28:59.349Z,99108.56
2023-04-03T08:30:01.802Z,99100.77
2023-04-03T08:31:08.438Z,99107.17
2023-04-03T08:32:11.350Z,99106.92
2023-04-03T08:33:13.643Z,99110.27
2023-04-03T08:34:16.241Z,99109.44
2023-04-03T08:35:20.358Z,99109.87
2023-04-03T08:36:28.649Z,99105.16
2023-04-03T08:37:32.607Z,99110.53
2023-04-03T08:38:37.762Z,99108.34
2023-04-03T08:39:41.441Z,99109.01
2023-04-03T08:40:45.932Z,99113.88
2023-04-03T08:41:49.069Z,99107.54
2023-04-03T08:43:11.497Z,99110.91
2023-04-03T08:44:34.033Z,99114.73
2023-04-03T08:45:50.604Z,99112.73
2023-04-03T08:47:11.797Z,99115.22
2023-04-03T08:48:30.051Z,99116.56
2023-04-03T08:49:36.521Z,99116.69
2023-04-03T08:50:42.261Z,99116.76
2023-04-03T08:51:47.896Z,99116.09
2023-04-03T08:52:59.258Z,99120.28
2023-04-03T08:54:09.539Z,99122.03
2023-04-03T08:55:27.587Z,99120.54
2023-04-03T08:56:32.275Z,99120.30
2023-04-03T08:57:38.322Z,99114.08
2023-04-03T09:00:04.721Z,99117.91
2023-04-03T09:01:17.094Z,99110.22
2023-04-03T09:02:38.504Z,99114.06
2023-04-03T09:03:42.678Z,99114.73
2023-04-03T09:04:44.986Z,99114.64
2023-04-03T09:06:00.179Z,99112.55
2023-04-03T09:07:09.047Z,99117.56
2023-04-03T09:08:14.867Z,99112.36
2023-04-03T09:09:40.031Z,99124.86
2023-04-03T09:10:45.387Z,99124.25
2023-04-03T09:12:01.939Z,99120.98
2023-04-03T09:13:17.037Z,99124.77
2023-04-03T09:14:38.128Z,99117.05
2023-04-03T09:15:41.426Z,99118.58
2023-04-03T09:17:03.440Z,99114.33
2023-04-03T09:18:09.332Z,99114.33
2023-04-03T09:19:35.194Z,99118.73
2023-04-03T09:20:56.254Z,99111.28
2023-04-03T09:22:03.122Z,99112.70
2023-04-03T09:23:11.926Z,99120.51
2023-04-03T09:24:17.020Z,99107.81
2023-04-03T09:25:26.030Z,99118.58
2023-04-03T09:26:51.826Z,99118.58
2023-04-03T09:27:54.865Z,99115.67
2023-04-03T09:29:02.957Z,99118.95
2023-04-03T09:30:09.198Z,99116.54
2023-04-03T09:31:17.678Z,99126.08
2023-04-03T09:32:29.444Z,99121.53
2023-04-03T09:33:32.479Z,99113.83
2023-04-03T09:34:36.944Z,99120.79
2023-04-03T09:35:48.100Z,99117.66
2023-04-03T09:36:49.528Z,99117.05
2023-04-03T09:37:54.937Z,99113.44
2023-04-03T09:39:09.068Z,99116.70
2023-04-03T09:40:33.089Z,99119.61
2023-04-03T09:41:35.541Z,99118.89
2023-04-03T09:42:44.104Z,99122.53
2023-04-03T09:43:54.298Z,99120.94
2023-04-03T09:45:02.503Z,99121.45
2023-04-03T09:46:28.177Z,99118.25
2023-04-03T09:47:38.140Z,99121.88
2023-04-03T09:48:48.172Z,99123.59
2023-04-03T09:49:53.961Z,99122.31
2023-04-03T09:50:59.900Z,99125.47
2023-04-03T09:52:08.837Z,99125.80
2023-04-03T09:53:14.785Z,99132.98
2023-04-03T09:54:32.883Z,99128.98
2023-04-03T09:55:44.159Z,99135.25
2023-04-03T09:56:52.070Z,99131.00
2023-04-03T09:57:56.003Z,99132.59
2023-04-03T09:59:08.221Z,99131.33
2023-04-03T10:00:29.587Z,99133.31
2023-04-03T10:01:35.216Z,99127.53
2023-04-03T10:02:40.655Z,99135.47
2023-04-03T10:03:44.985Z,99135.23
2023-04-03T10:04:53.061Z,99127.53
2023-04-03T10:05:54.624Z,99136.02
2023-04-03T10:06:57.627Z,99144.58
2023-04-03T10:08:15.920Z,99142.38
2023-04-03T10:09:24.656Z,99141.88
2023-04-03T10:10:27.425Z,99143.03
2023-04-03T10:11:30.611Z,99149.73
2023-04-03T10:12:32.994Z,99149.80
2023-04-03T10:13:45.117Z,99144.95
2023-04-03T10:14:59.051Z,99153.75
2023-04-03T10:16:16.112Z,99150.77
2023-04-03T10:17:24.841Z,99142.68
2023-04-03T10:18:45.495Z,99146.87
2023-04-03T10:20:04.060Z,99150.92
2023-04-03T10:21:26.584Z,99144.38
2023-04-03T10:22:23.268Z,99147.87
2023-04-03T10:23:34.586Z,99149.23
2023-04-03T10:24:53.370Z,99145.63
2023-04-03T10:26:31.936Z,99156.05
2023-04-03T10:27:44.358Z,99149.73
2023-04-03T10:28:59.199Z,99151.84
2023-04-03T10:30:24.762Z,99147.78
2023-04-03T10:32:59.713Z,99153.99
2023-04-03T10:34:24.762Z,99153.14
2023-04-03T10:35:40.402Z,99156.91
2023-04-03T10:36:47.144Z,99154.07
2023-04-03T10:38:11.314Z,99157.84
2023-04-03T10:39:36.780Z,99158.76
2023-04-03T10:40:56.243Z,99159.81
2023-04-03T10:42:16.013Z,99165.69
2023-04-03T10:43:12.200Z,99152.42
2023-04-03T10:44:30.075Z,99155.59
2023-04-03T10:46:04.494Z,99163.02
2023-04-03T10:47:22.192Z,99165.23
2023-04-03T10:48:35.142Z,99159.28
2023-04-03T10:49:59.882Z,99168.18
2023-04-03T10:51:15.905Z,99168.54
2023-04-03T10:52:22.402Z,99170.91
2023-04-03T10:53:34.214Z,99175.58
2023-04-03T10:54:43.758Z,99168.13
2023-04-03T10:55:59.186Z,99181.56
2023-04-03T10:57:12.724Z,99176.27
2023-04-03T10:58:18.163Z,99173.67
2023-04-03T10:59:44.070Z,99180.11
2023-04-03T11:00:49.812Z,99177.13
2023-04-03T11:01:59.113Z,99173.77
2023-04-03T11:03:14.100Z,99179.14
2023-04-03T11:04:20.012Z,99181.30
2023-04-03T11:05:47.958Z,99178.27
2023-04-03T11:07:03.538Z,99175.55
2023-04-03T11:08:10.773Z,99179.06
2023-04-03T11:09:23.548Z,99182.25
2023-04-03T11:10:46.777Z,99183.20
2023-04-03T11:11:51.149Z,99181.95
2023-04-03T11:14:39.305Z,99177.70
2023-04-03T11:15:44.406Z,99183.61
2023-04-03T11:16:54.383Z,99187.84
2023-04-03T11:18:16.464Z,99178.70
2023-04-03T11:19:25.515Z,99184.82
2023-04-03T11:20:33.466Z,99182.66
2023-04-03T11:21:42.483Z,99186.00
2023-04-03T11:24:30.456Z,99185.84
2023-04-03T11:25:35.101Z,99177.44
2023-04-03T11:26:41.735Z,99179.59
2023-04-03T11:28:06.488Z,99187.45
2023-04-03T11:29:20.715Z,99182.75
2023-04-03T11:30:23.146Z,99179.92
2023-04-03T11:31:35.713Z,99188.54
2023-04-03T11:32:59.110Z,99189.31
2023-04-03T11:34:08.759Z,99191.97
2023-04-03T11:35:13.682Z,99182.34
2023-04-03T11:36:34.816Z,99181.88
2023-04-03T11:37:52.619Z,99187.84
2023-04-03T11:39:04.706Z,99185.90
2023-04-03T11:40:28.770Z,99189.08
2023-04-03T11:41:32.464Z,99187.98
2023-04-03T11:42:38.794Z,99182.93
2023-04-03T11:43:44.211Z,99189.77
2023-04-03T11:44:47.897Z,99183.79
2023-04-03T11:46:08.063Z,99190.99
2023-04-03T11:47:12.643Z,99182.25
2023-04-03T11:48:34.091Z,99185.70
2023-04-03T11:51:05.260Z,99190.81
2023-04-03T11:52:13.170Z,99195.69
2023-04-03T11:53:19.448Z,99192.36
2023-04-03T11:54:45.862Z,99184.11
2023-04-03T11:55:55.396Z,99193.14
2023-04-03T11:56:57.669Z,99189.18
2023-04-03T11:58:05.869Z,99191.55
2023-04-03T11:59:16.184Z,99192.09
2023-04-03T12:00:47.760Z,99194.83
2023-04-03T12:01:57.428Z,99192.50
2023-04-03T12:03:00.185Z,99193.27
2023-04-03T12:04:11.159Z,99191.70
2023-04-03T12:06:44.262Z,99190.17
2023-04-03T12:09:27.823Z,99187.81
2023-04-03T12:10:32.548Z,99192.73
2023-04-03T12:11:37.775Z,99196.72
2023-04-03T12:12:41.319Z,99196.30
2023-04-03T12:13:52.687Z,99201.00
2023-04-03T12:14:56.346Z,99198.31
2023-04-03T12:16:00.869Z,99201.73
2023-04-03T12:17:03.415Z,99196.04
2023-04-03T12:18:35.643Z,99206.34
2023-04-03T12:19:42.885Z,99204.19
2023-04-03T12:20:59.579Z,99209.34
2023-04-03T12:22:07.980Z,99213.38
2023-04-03T12:23:38.830Z,99215.98
2023-04-03T12:24:43.484Z,99210.39
2023-04-03T12:25:52.152Z,99206.11
2023-04-03T12:27:17.539Z,99208.03
2023-04-03T12:28:20.674Z,99214.36
2023-04-03T12:29:35.724Z,99212.47
2023-04-03T12:30:38.224Z,99209.02
2023-04-03T12:32:04.143Z,99214.74
2023-04-03T12:33:13.683Z,99214.30
2023-04-03T12:34:46.013Z,99219.98
2023-04-03T12:36:07.994Z,99222.66
2023-04-03T12:37:17.289Z,99224.09
2023-04-03T12:38:40.179Z,99222.44
2023-04-03T12:39:51.684Z,99231.75
2023-04-03T12:41:14.642Z,99237.84
2023-04-03T12:42:35.967Z,99238.67
2023-04-03T12:43:57.663Z,99241.34
2023-04-03T12:45:07.301Z,99235.84
2023-04-03T12:46:17.770Z,99236.75
2023-04-03T12:47:26.774Z,99238.64
2023-04-03T12:48:32.538Z,99238.48
2023-04-03T12:49:38.526Z,99242.69
2023-04-03T12:50:43.453Z,99240.48
2023-04-03T12:51:55.315Z,99241.92
2023-04-03T12:53:19.782Z,99259.08
2023-04-03T12:54:35.484Z,99248.86
2023-04-03T12:55:38.203Z,99255.92
2023-04-03T12:56:41.973Z,99247.74
2023-04-03T12:57:45.681Z,99253.18
2023-04-03T12:58:50.524Z,99253.89
2023-04-03T12:59:55.924Z,99264.77
2023-04-03T13:01:12.930Z,99265.32
2023-04-03T13:02:34.240Z,99263.77
2023-04-03T13:03:39.918Z,99267.87
2023-04-03T13:04:42.412Z,99263.73
2023-04-03T13:05:46.059Z,99264.25
2023-04-03T13:06:49.401Z,99249.18
2023-04-03T13:08:05.472Z,99251.80